Time;durP1;ratioP1;P1;durP2;ratioP2;P2;SDS_P1;SDS_P2;PMS_P1;PMS_P2;Temp;Humidity;BMP_temperature;BMP_pressure;BME280_temperature;BME280_humidity;BME280_pressure;Samples;Min_cycle;Max_cycle;Signal;HPM_P1;HPM_P2
2022/06/01 00:00:49;;;;;;;1999.90;999.90;;;8.10;99.90;;;;;;5051251;28;20466;-66
2022/06/01 00:03:15;;;;;;;1999.90;999.90;;;8.10;99.90;;;;;;5051353;28;20466;-66
2022/06/01 00:05:43;;;;;;;1999.90;999.90;;;8.00;99.90;;;;;;5052867;28;20497;-65
2022/06/01 00:08:10;;;;;;;1999.90;999.90;;;8.00;99.90;;;;;;5057503;28;20549;-66
2022/06/01 00:10:39;;;;;;;1999.90;999.90;;;7.80;99.90;;;;;;5054992;28;20485;-68
2022/06/01 00:13:06;;;;;;;1999.90;999.90;;;7.70;99.90;;;;;;5052850;28;20612;-66
2022/06/01 00:15:33;;;;;;;1999.90;999.90;;;7.80;99.90;;;;;;5055131;28;20519;-65
2022/06/01 00:18:00;;;;;;;1999.90;999.90;;;7.70;99.90;;;;;;5049718;28;20526;-64
2022/06/01 00:20:27;;;;;;;1999.90;999.90;;;7.80;99.90;;;;;;5055636;28;20508;-67
2022/06/01 00:22:54;;;;;;;1999.90;999.90;;;7.80;99.90;;;;;;5047960;28;20942;-66
2022/06/01 00:25:21;;;;;;;1999.90;999.90;;;7.80;99.90;;;;;;5051768;28;20458;-66
2022/06/01 00:27:49;;;;;;;1999.90;999.90;;;7.80;99.90;;;;;;5049127;28;20954;-67
2022/06/01 00:30:17;;;;;;;1999.90;999.90;;;7.80;99.90;;;;;;5054836;28;20528;-66
2022/06/01 00:32:44;;;;;;;1999.90;999.90;;;7.80;99.90;;;;;;5054230;28;21018;-65
2022/06/01 00:35:13;;;;;;;1999.90;999.90;;;7.60;99.90;;;;;;5054489;28;20463;-66
2022/06/01 00:37:40;;;;;;;1999.90;999.90;;;7.70;99.90;;;;;;5047314;28;20484;-64
2022/06/01 00:40:09;;;;;;;1999.90;999.90;;;7.70;99.90;;;;;;5049653;28;20474;-65
2022/06/01 00:42:37;;;;;;;1999.90;999.90;;;7.70;99.90;;;;;;5048551;28;20861;-64
2022/06/01 00:45:07;;;;;;;1999.90;999.90;;;8.10;99.90;;;;;;5048979;28;20521;-64
2022/06/01 00:47:34;;;;;;;1999.90;999.90;;;7.40;99.90;;;;;;5049391;28;20453;-64
2022/06/01 00:50:05;;;;;;;1999.90;999.90;;;7.40;99.90;;;;;;5053152;28;20497;-64
2022/06/01 00:52:38;;;;;;;1999.90;999.90;;;7.50;99.90;;;;;;5049520;28;20504;-64
2022/06/01 00:55:11;;;;;;;1999.90;999.90;;;7.40;99.90;;;;;;5052422;28;20466;-62
2022/06/01 00:57:38;;;;;;;1999.90;999.90;;;7.20;99.90;;;;;;5050491;28;20481;-64
2022/06/01 01:00:12;;;;;;;1999.90;999.90;;;7.30;99.90;;;;;;5053717;28;20493;-64
2022/06/01 01:02:40;;;;;;;1999.90;999.90;;;7.30;99.90;;;;;;5048768;28;20893;-64
2022/06/01 01:05:09;;;;;;;1999.90;999.90;;;7.30;99.90;;;;;;5048726;28;20461;-64
2022/06/01 01:07:37;;;;;;;1999.90;999.90;;;7.40;99.90;;;;;;5049862;28;20462;-64
2022/06/01 01:10:04;;;;;;;1999.90;999.90;;;7.50;99.90;;;;;;5049165;28;20497;-63
2022/06/01 01:12:56;;;;;;;1999.90;999.90;;;7.50;99.90;;;;;;5049934;28;20953;-64
2022/06/01 01:15:20;;;;;;;1999.90;999.90;;;7.50;99.90;;;;;;5049492;28;20454;-64
2022/06/01 01:17:49;;;;;;;1999.90;999.90;;;7.60;99.90;;;;;;5047154;28;20997;-64
2022/06/01 01:20:17;;;;;;;1999.90;999.90;;;7.60;99.90;;;;;;5048695;28;20482;-64
2022/06/01 01:22:52;;;;;;;1999.90;999.90;;;7.60;99.90;;;;;;5051564;28;20466;-63
2022/06/01 01:25:25;;;;;;;1999.90;999.90;;;7.40;99.90;;;;;;5058766;28;20470;-63
2022/06/01 01:27:54;;;;;;;1999.90;999.90;;;7.20;99.90;;;;;;5047805;28;20460;-64
2022/06/01 01:30:36;;;;;;;1999.90;999.90;;;7.20;99.90;;;;;;5053868;28;20997;-64
2022/06/01 01:33:03;;;;;;;1999.90;999.90;;;7.20;99.90;;;;;;5050948;28;20467;-64
2022/06/01 01:35:30;;;;;;;1999.90;999.90;;;7.40;99.90;;;;;;5047932;28;20977;-64
2022/06/01 01:37:58;;;;;;;1999.90;999.90;;;7.50;99.90;;;;;;5048059;28;20485;-64
2022/06/01 01:40:26;;;;;;;1999.90;999.90;;;7.60;99.90;;;;;;5045969;28;20556;-65
2022/06/01 01:42:53;;;;;;;1999.90;999.90;;;7.80;99.90;;;;;;5047173;28;20508;-66
2022/06/01 01:45:24;;;;;;;1999.90;999.90;;;7.90;99.90;;;;;;5056788;28;20561;-67
2022/06/01 01:47:51;;;;;;;1999.90;999.90;;;8.10;99.90;;;;;;5046683;28;20966;-66
2022/06/01 01:50:18;;;;;;;1999.90;999.90;;;8.30;99.90;;;;;;5049491;28;20540;-67
2022/06/01 01:52:45;;;;;;;1999.90;999.90;;;8.40;99.90;;;;;;5047503;28;20862;-65
2022/06/01 01:55:19;;;;;;;1999.90;999.90;;;8.50;99.90;;;;;;5051757;28;20840;-67
2022/06/01 01:57:55;;;;;;;1999.90;999.90;;;8.60;99.90;;;;;;5049557;28;21114;-68
2022/06/01 02:00:24;;;;;;;1999.90;999.90;;;8.60;99.90;;;;;;5053636;28;20531;-67
2022/06/01 02:02:56;;;;;;;1999.90;999.90;;;8.60;99.90;;;;;;5046899;28;20470;-66
2022/06/01 02:08:23;;;;;;;1999.90;999.90;;;8.80;99.90;;;;;;5047306;28;20506;-67
2022/06/01 02:13:40;;;;;;;1999.90;999.90;;;8.70;99.90;;;;;;5044626;28;20512;-68
2022/06/01 02:16:08;;;;;;;1999.90;999.90;;;8.80;99.90;;;;;;5047428;28;20536;-67
2022/06/01 02:18:39;;;;;;;1999.90;999.90;;;8.80;99.90;;;;;;5049881;28;20486;-66
2022/06/01 02:21:12;;;;;;;1999.90;999.90;;;8.70;99.90;;;;;;5045936;28;20961;-67
2022/06/01 02:23:39;;;;;;;1999.90;999.90;;;8.80;99.90;;;;;;5048807;28;20512;-67
2022/06/01 02:26:07;;;;;;;1999.90;999.90;;;8.80;99.90;;;;;;5046326;28;20473;-68
2022/06/01 02:28:35;;;;;;;1999.90;999.90;;;8.80;99.90;;;;;;5053846;28;20507;-67
2022/06/01 02:31:04;;;;;;;1999.90;999.90;;;8.80;99.90;;;;;;5046281;28;21095;-66
2022/06/01 02:33:34;;;;;;;1999.90;999.90;;;8.70;99.90;;;;;;5052198;28;20470;-67
2022/06/01 02:36:04;;;;;;;1999.90;999.90;;;8.70;99.90;;;;;;5045541;28;20977;-67
2022/06/01 02:38:36;;;;;;;1999.90;999.90;;;8.80;99.90;;;;;;5043607;28;21009;-67
2022/06/01 02:41:03;;;;;;;1999.90;999.90;;;8.80;99.90;;;;;;5045871;28;20470;-67
2022/06/01 02:43:30;;;;;;;1999.90;999.90;;;8.90;99.90;;;;;;5048289;28;20470;-67
2022/06/01 02:45:57;;;;;;;1999.90;999.90;;;9.00;99.90;;;;;;5046557;28;20973;-66
2022/06/01 02:48:25;;;;;;;1999.90;999.90;;;9.20;99.90;;;;;;5048009;28;20515;-67
2022/06/01 02:50:52;;;;;;;1999.90;999.90;;;9.30;99.90;;;;;;5046726;28;20569;-67
2022/06/01 02:53:19;;;;;;;1999.90;999.90;;;9.60;99.90;;;;;;5048327;28;20458;-67
2022/06/01 02:55:45;;;;;;;1999.90;999.90;;;9.80;99.90;;;;;;5046547;28;20964;-68
2022/06/01 02:58:13;;;;;;;1999.90;999.90;;;9.90;99.90;;;;;;5047468;28;20489;-67
2022/06/01 03:00:40;;;;;;;1999.90;999.90;;;10.00;99.90;;;;;;5046281;28;20536;-66
2022/06/01 03:03:08;;;;;;;1999.90;999.90;;;10.10;99.90;;;;;;5046091;28;20481;-67
2022/06/01 03:05:38;;;;;;;1999.90;999.90;;;10.10;99.90;;;;;;5048829;28;20521;-67
2022/06/01 03:08:06;;;;;;;1999.90;999.90;;;10.10;99.90;;;;;;5052913;28;20545;-67
2022/06/01 03:10:33;;;;;;;1999.90;999.90;;;10.20;99.90;;;;;;5051517;28;20517;-68
2022/06/01 03:13:00;;;;;;;1999.90;999.90;;;10.30;99.90;;;;;;5045702;28;20485;-68
2022/06/01 03:15:27;;;;;;;1999.90;999.90;;;10.40;99.90;;;;;;5052294;28;20534;-67
2022/06/01 03:17:54;;;;;;;1999.90;999.90;;;10.40;99.90;;;;;;5046582;28;20527;-67
2022/06/01 03:20:23;;;;;;;1999.90;999.90;;;10.40;99.90;;;;;;5055205;28;20573;-67
2022/06/01 03:22:51;;;;;;;1999.90;999.90;;;10.60;99.90;;;;;;5047333;28;20528;-65
2022/06/01 03:25:22;;;;;;;1999.90;999.90;;;10.70;99.90;;;;;;5047362;28;20462;-65
2022/06/01 03:27:49;;;;;;;1999.90;999.90;;;10.80;99.90;;;;;;5051032;28;20510;-64
2022/06/01 03:30:17;;;;;;;1999.90;999.90;;;10.80;99.90;;;;;;5050505;28;20540;-65
2022/06/01 03:32:44;;;;;;;1999.90;999.90;;;10.90;99.90;;;;;;5049169;28;20512;-65
2022/06/01 03:35:11;;;;;;;1999.90;999.90;;;10.90;99.90;;;;;;5050255;28;20463;-65
2022/06/01 03:37:38;;;;;;;1999.90;999.90;;;11.00;99.90;;;;;;5051721;28;20462;-67
2022/06/01 03:40:07;;;;;;;1999.90;999.90;;;11.00;99.90;;;;;;5049607;28;20554;-67
2022/06/01 03:42:35;;;;;;;1999.90;999.90;;;11.20;99.90;;;;;;5041808;28;20455;-66
2022/06/01 03:47:46;;;;;;;1999.90;999.90;;;11.90;99.90;;;;;;5049306;28;20565;-64
2022/06/01 03:50:13;;;;;;;1999.90;999.90;;;12.10;99.90;;;;;;5049515;28;20486;-65
2022/06/01 03:52:39;;;;;;;1999.90;999.90;;;12.40;99.90;;;;;;5055733;28;20466;-66
2022/06/01 03:55:09;;;;;;;1999.90;999.90;;;12.40;99.90;;;;;;5050317;28;22279;-65
2022/06/01 03:57:35;;;;;;;1999.90;999.90;;;12.40;99.90;;;;;;5051666;28;20458;-66
2022/06/01 04:00:02;;;;;;;1999.90;999.90;;;12.50;99.90;;;;;;5047784;28;20500;-67
2022/06/01 04:02:29;;;;;;;1999.90;999.90;;;12.50;99.90;;;;;;5046261;28;20528;-66
2022/06/01 04:04:57;;;;;;;1999.90;999.90;;;12.50;99.90;;;;;;5052590;28;20462;-65
2022/06/01 04:07:24;;;;;;;1999.90;999.90;;;12.30;99.90;;;;;;5056230;28;20512;-65
2022/06/01 04:09:50;;;;;;;1999.90;999.90;;;12.40;99.90;;;;;;5050900;28;20486;-65
2022/06/01 04:12:18;;;;;;;1999.90;999.90;;;12.30;99.90;;;;;;5051243;28;20523;-66
2022/06/01 04:14:45;;;;;;;1999.90;999.90;;;12.20;99.90;;;;;;5050248;28;20462;-67
2022/06/01 04:17:12;;;;;;;1999.90;999.90;;;12.20;99.90;;;;;;5051401;28;20459;-66
2022/06/01 04:19:38;;;;;;;1999.90;999.90;;;12.10;99.90;;;;;;5050398;28;20540;-66
2022/06/01 04:22:05;;;;;;;1999.90;999.90;;;12.10;99.90;;;;;;5048275;28;20961;-66
2022/06/01 04:24:35;;;;;;;1999.90;999.90;;;11.70;99.90;;;;;;5049990;28;20515;-66
2022/06/01 04:27:01;;;;;;;1999.90;999.90;;;12.10;99.90;;;;;;5048872;28;20466;-65
2022/06/01 04:29:29;;;;;;;1999.90;999.90;;;12.10;99.90;;;;;;5044505;28;20559;-65
2022/06/01 04:32:02;;;;;;;1999.90;999.90;;;12.20;99.90;;;;;;5052186;28;20465;-65
2022/06/01 04:34:28;;;;;;;1999.90;999.90;;;12.10;99.90;;;;;;5046079;28;20541;-65
2022/06/01 04:36:55;;;;;;;1999.90;999.90;;;12.10;99.90;;;;;;5048246;28;20953;-67
2022/06/01 04:39:22;;;;;;;1999.90;999.90;;;12.00;99.90;;;;;;5055098;28;20494;-65
2022/06/01 04:41:48;;;;;;;1999.90;999.90;;;12.20;99.90;;;;;;5052381;28;20493;-65
2022/06/01 04:44:16;;;;;;;1999.90;999.90;;;12.20;99.90;;;;;;5048786;28;20459;-66
2022/06/01 04:46:44;;;;;;;1999.90;999.90;;;12.60;99.90;;;;;;5055525;28;20976;-66
2022/06/01 04:49:11;;;;;;;1999.90;999.90;;;12.90;99.90;;;;;;5050163;28;21001;-66
2022/06/01 04:51:38;;;;;;;1999.90;999.90;;;13.30;99.90;;;;;;5050260;28;20486;-65
2022/06/01 04:54:06;;;;;;;1999.90;999.90;;;13.30;99.90;;;;;;5053499;28;20547;-65
2022/06/01 04:56:33;;;;;;;1999.90;999.90;;;13.40;99.90;;;;;;5049285;28;20957;-64
2022/06/01 04:59:00;;;;;;;1999.90;999.90;;;13.70;99.90;;;;;;5047688;28;20544;-65
2022/06/01 05:01:27;;;;;;;1999.90;999.90;;;14.00;99.90;;;;;;5049611;28;20524;-66
2022/06/01 05:03:56;;;;;;;1999.90;999.90;;;14.40;99.90;;;;;;5047976;28;20462;-66
2022/06/01 05:06:23;;;;;;;1999.90;999.90;;;14.70;99.90;;;;;;5053895;28;20469;-66
2022/06/01 05:11:15;;;;;;;1999.90;999.90;;;14.70;99.90;;;;;;5071677;22;20556;-71
2022/06/01 05:13:42;;;;;;;1999.90;999.90;;;14.90;99.90;;;;;;5050292;28;20672;-67
2022/06/01 05:16:08;;;;;;;1999.90;999.90;;;14.60;99.90;;;;;;5051537;28;20461;-70
2022/06/01 05:18:35;;;;;;;1999.90;999.90;;;14.50;99.90;;;;;;5047204;28;20498;-70
2022/06/01 05:21:04;;;;;;;1999.90;999.90;;;14.30;99.90;;;;;;5050849;28;21427;-75
2022/06/01 05:23:30;;;;;;;1999.90;999.90;;;14.30;99.90;;;;;;5050495;28;20997;-70
2022/06/01 05:25:57;;;;;;;1999.90;999.90;;;14.00;99.90;;;;;;5049992;28;20470;-71
2022/06/01 05:28:27;;;;;;;1999.90;999.90;;;14.10;99.90;;;;;;5045689;28;20458;-71
2022/06/01 05:30:57;;;;;;;1999.90;999.90;;;14.10;99.90;;;;;;5048377;28;20482;-69
2022/06/01 05:33:23;;;;;;;1999.90;999.90;;;14.10;99.90;;;;;;5045283;28;20455;-71
2022/06/01 05:35:50;;;;;;;1999.90;999.90;;;14.30;99.90;;;;;;5050591;28;20512;-70
2022/06/01 05:38:18;;;;;;;1999.90;999.90;;;14.50;99.90;;;;;;5049254;28;20451;-70
2022/06/01 05:40:45;;;;;;;1999.90;999.90;;;14.80;99.90;;;;;;5049709;28;20478;-69
2022/06/01 05:43:14;;;;;;;1999.90;999.90;;;14.80;99.90;;;;;;5049826;28;20458;-71
2022/06/01 05:45:40;;;;;;;1999.90;999.90;;;14.80;99.90;;;;;;5045323;28;20469;-69
2022/06/01 05:48:08;;;;;;;1999.90;999.90;;;14.80;99.90;;;;;;5048639;28;20458;-70
2022/06/01 05:50:35;;;;;;;1999.90;999.90;;;14.80;99.90;;;;;;5048097;28;20478;-71
2022/06/01 05:53:02;;;;;;;1999.90;999.90;;;14.80;99.90;;;;;;5040506;28;20477;-71
2022/06/01 05:55:30;;;;;;;1999.90;999.90;;;14.90;99.90;;;;;;5036409;28;20447;-71
2022/06/01 05:57:57;;;;;;;1999.90;999.90;;;15.00;99.90;;;;;;5042065;28;20466;-70
2022/06/01 06:00:24;;;;;;;1999.90;999.90;;;15.00;99.90;;;;;;5044126;28;20482;-71
2022/06/01 06:02:51;;;;;;;1999.90;999.90;;;15.10;99.90;;;;;;5044193;28;20490;-70
2022/06/01 06:08:02;;;;;;;1999.90;999.90;;;15.10;99.90;;;;;;5047502;28;20966;-70
2022/06/01 06:10:30;;;;;;;1999.90;999.90;;;15.20;99.90;;;;;;5050507;28;20490;-70
2022/06/01 06:12:57;;;;;;;1999.90;999.90;;;15.10;99.90;;;;;;5049358;28;21039;-70
2022/06/01 06:15:24;;;;;;;1999.90;999.90;;;15.20;99.90;;;;;;5049659;28;20470;-71
2022/06/01 06:17:51;;;;;;;1999.90;999.90;;;15.20;99.90;;;;;;5046319;28;20466;-71
2022/06/01 06:20:17;;;;;;;1999.90;999.90;;;15.10;99.90;;;;;;5049221;28;20513;-70
2022/06/01 06:22:44;;;;;;;1999.90;999.90;;;15.20;99.90;;;;;;5045603;28;20489;-70
2022/06/01 06:25:11;;;;;;;1999.90;999.90;;;15.20;99.90;;;;;;5049173;28;20458;-71
2022/06/01 06:27:40;;;;;;;1999.90;999.90;;;15.40;99.90;;;;;;5049564;28;20474;-73
2022/06/01 06:30:08;;;;;;;1999.90;999.90;;;15.30;99.90;;;;;;5048306;28;20481;-70
2022/06/01 06:32:35;;;;;;;1999.90;999.90;;;15.30;99.90;;;;;;5049223;28;20457;-71
2022/06/01 06:35:01;;;;;;;1999.90;999.90;;;15.30;99.90;;;;;;5048676;28;20564;-69
2022/06/01 06:37:28;;;;;;;1999.90;999.90;;;15.50;99.90;;;;;;5050352;28;20465;-71
2022/06/01 06:39:54;;;;;;;1999.90;999.90;;;15.60;99.90;;;;;;5048917;28;20490;-72
2022/06/01 06:42:21;;;;;;;1999.90;999.90;;;15.40;99.90;;;;;;5050639;28;20458;-72
2022/06/01 06:44:49;;;;;;;1999.90;999.90;;;15.40;99.90;;;;;;5048655;28;20947;-71
2022/06/01 06:47:16;;;;;;;1999.90;999.90;;;15.40;99.90;;;;;;5047037;28;20462;-76
2022/06/01 06:49:43;;;;;;;1999.90;999.90;;;15.40;99.90;;;;;;5039947;28;20487;-71
2022/06/01 06:52:10;;;;;;;1999.90;999.90;;;15.30;99.90;;;;;;5046616;28;20473;-72
2022/06/01 06:54:36;;;;;;;1999.90;999.90;;;15.70;99.90;;;;;;5048967;28;20470;-71
2022/06/01 06:57:03;;;;;;;1999.90;999.90;;;16.10;99.90;;;;;;5047821;28;20462;-71
2022/06/01 06:59:30;;;;;;;1999.90;999.90;;;16.50;99.90;;;;;;5050236;28;20489;-71
2022/06/01 07:01:58;;;;;;;1999.90;999.90;;;16.80;99.90;;;;;;5049439;28;20451;-71
2022/06/01 07:04:25;;;;;;;1999.90;999.90;;;17.30;99.90;;;;;;5050873;28;20888;-72
2022/06/01 07:06:51;;;;;;;1999.90;999.90;;;17.40;99.90;;;;;;5052119;28;20508;-71
2022/06/01 07:09:18;;;;;;;1999.90;999.90;;;17.70;99.90;;;;;;5055411;28;20474;-71
2022/06/01 07:11:45;;;;;;;1999.90;999.90;;;17.60;99.30;;;;;;5055690;28;20453;-71
2022/06/01 07:14:11;;;;;;;1999.90;999.90;;;17.70;99.90;;;;;;5055222;28;20454;-71
2022/06/01 07:16:38;;;;;;;1999.90;999.90;;;18.10;99.30;;;;;;5054675;28;20450;-69
2022/06/01 07:19:09;;;;;;;1999.90;999.90;;;18.20;98.80;;;;;;5054880;28;20482;-71
2022/06/01 07:21:36;;;;;;;1999.90;999.90;;;18.40;98.70;;;;;;5054891;28;20446;-76
2022/06/01 07:24:04;;;;;;;1999.90;999.90;;;18.40;98.20;;;;;;5056285;28;20449;-71
2022/06/01 07:26:34;;;;;;;1999.90;999.90;;;18.20;98.50;;;;;;5056008;28;20868;-71
2022/06/01 07:29:01;;;;;;;1999.90;999.90;;;18.10;98.10;;;;;;5055357;28;20955;-73
2022/06/01 07:31:28;;;;;;;1999.90;999.90;;;18.10;98.40;;;;;;5054827;28;20479;-71
2022/06/01 07:33:55;;;;;;;1999.90;999.90;;;18.10;98.50;;;;;;5055091;28;20446;-71
2022/06/01 07:36:23;;;;;;;1999.90;999.90;;;17.90;98.60;;;;;;5056307;28;20449;-71
2022/06/01 07:44:17;;;;;;;1999.90;999.90;;;17.50;99.50;;;;;;5052206;28;20492;-70
2022/06/01 07:46:43;;;;;;;1999.90;999.90;;;17.70;99.60;;;;;;5055450;28;20442;-70
2022/06/01 07:49:10;;;;;;;1999.90;999.90;;;17.60;98.60;;;;;;5055809;28;20483;-70
2022/06/01 07:51:39;;;;;;;1999.90;999.90;;;17.40;99.20;;;;;;5054934;28;20446;-70
2022/06/01 07:54:07;;;;;;;1999.90;999.90;;;17.30;99.80;;;;;;5054365;28;20823;-71
2022/06/01 07:56:35;;;;;;;1999.90;999.90;;;17.50;99.80;;;;;;5054372;28;20438;-71
2022/06/01 07:59:01;;;;;;;1999.90;999.90;;;17.70;99.30;;;;;;5054119;28;20496;-71
2022/06/01 08:01:29;;;;;;;1999.90;999.90;;;17.70;98.90;;;;;;5053845;28;20508;-71
2022/06/01 08:03:57;;;;;;;1999.90;999.90;;;17.70;98.60;;;;;;5053704;28;20454;-70
2022/06/01 08:06:24;;;;;;;1999.90;999.90;;;17.80;98.30;;;;;;5055515;28;21070;-70
2022/06/01 08:08:52;;;;;;;1999.90;999.90;;;17.70;99.30;;;;;;5056113;28;20537;-71
2022/06/01 08:11:19;;;;;;;1999.90;999.90;;;17.40;99.90;;;;;;5055534;28;20473;-68
2022/06/01 08:13:45;;;;;;;1999.90;999.90;;;17.10;99.90;;;;;;5054593;28;20450;-71
2022/06/01 08:16:13;;;;;;;1999.90;999.90;;;17.00;99.90;;;;;;5055446;28;20819;-72
2022/06/01 08:18:39;;;;;;;1999.90;999.90;;;16.90;99.90;;;;;;5054655;28;20454;-71
2022/06/01 08:21:06;;;;;;;1999.90;999.90;;;16.80;99.90;;;;;;5054596;28;20486;-69
2022/06/01 08:23:33;;;;;;;1999.90;999.90;;;16.70;99.90;;;;;;5055586;28;20451;-71
2022/06/01 08:26:01;;;;;;;1999.90;999.90;;;17.00;99.90;;;;;;5055512;28;20454;-71
2022/06/01 08:28:28;;;;;;;1999.90;999.90;;;17.40;99.90;;;;;;5055013;28;20504;-74
2022/06/01 08:30:55;;;;;;;1999.90;999.90;;;16.90;99.90;;;;;;5054589;28;20459;-72
2022/06/01 08:33:23;;;;;;;1999.90;999.90;;;16.60;99.90;;;;;;5054031;28;20450;-71
2022/06/01 08:35:52;;;;;;;1999.90;999.90;;;16.50;99.90;;;;;;5054831;28;20458;-71
2022/06/01 08:38:19;;;;;;;1999.90;999.90;;;16.80;99.90;;;;;;5054896;28;20452;-75
2022/06/01 08:40:57;;;;;;;1999.90;999.90;;;16.90;99.90;;;;;;5054691;28;20582;-69
2022/06/01 08:43:29;;;;;;;1999.90;999.90;;;16.90;99.90;;;;;;5053674;28;20953;-72
2022/06/01 08:45:59;;;;;;;1999.90;999.90;;;16.80;99.90;;;;;;5054074;28;20974;-73
2022/06/01 08:48:33;;;;;;;1999.90;999.90;;;16.50;99.90;;;;;;5054651;28;20426;-71
2022/06/01 08:51:00;;;;;;;1999.90;999.90;;;16.40;99.90;;;;;;5054754;28;20547;-71
2022/06/01 08:53:27;;;;;;;1999.90;999.90;;;16.30;99.90;;;;;;5054368;28;20520;-70
2022/06/01 08:55:58;;;;;;;1999.90;999.90;;;16.40;99.90;;;;;;5054276;28;20490;-71
2022/06/01 08:58:32;;;;;;;1999.90;999.90;;;16.60;99.90;;;;;;5055111;28;20430;-69
2022/06/01 09:01:04;;;;;;;1999.90;999.90;;;16.70;99.90;;;;;;5054535;28;20489;-69
2022/06/01 09:03:36;;;;;;;1999.90;999.90;;;16.80;99.90;;;;;;5053092;28;22693;-71
2022/06/01 09:06:10;;;;;;;1999.90;999.90;;;16.90;99.90;;;;;;5055220;28;20501;-72
2022/06/01 09:08:45;;;;;;;1999.90;999.90;;;17.10;99.90;;;;;;5054722;28;20480;-71
2022/06/01 09:11:13;;;;;;;1999.90;999.90;;;17.20;99.90;;;;;;5048121;28;20486;-71
2022/06/01 09:13:52;;;;;;;1999.90;999.90;;;17.40;99.90;;;;;;5049872;28;20524;-71
2022/06/01 09:16:22;;;;;;;1999.90;999.90;;;17.70;99.90;;;;;;5045446;28;20550;-71
2022/06/01 09:18:52;;;;;;;1999.90;999.90;;;17.60;99.90;;;;;;5049368;28;20515;-71
2022/06/01 09:24:10;;;;;;;1999.90;999.90;;;17.80;99.90;;;;;;5043599;28;20438;-73
2022/06/01 09:26:51;;;;;;;1999.90;999.90;;;18.10;99.90;;;;;;5049801;28;20532;-71
2022/06/01 09:29:23;;;;;;;1999.90;999.90;;;18.10;99.90;;;;;;5048798;28;20482;-71
2022/06/01 09:31:55;;;;;;;1999.90;999.90;;;17.80;99.90;;;;;;5045829;28;20465;-71
2022/06/01 09:34:26;;;;;;;1999.90;999.90;;;17.70;99.90;;;;;;5043572;28;20463;-72
2022/06/01 09:36:57;;;;;;;1999.90;999.90;;;17.20;99.90;;;;;;5045795;28;20512;-72
2022/06/01 09:39:23;;;;;;;1999.90;999.90;;;16.40;99.90;;;;;;5046711;28;20483;-76
2022/06/01 09:41:50;;;;;;;1999.90;999.90;;;16.00;99.90;;;;;;5046630;28;20458;-70
2022/06/01 09:44:20;;;;;;;1999.90;999.90;;;15.80;99.90;;;;;;5044560;28;20916;-70
2022/06/01 09:46:56;;;;;;;1999.90;999.90;;;15.80;99.90;;;;;;5046709;28;20466;-74
2022/06/01 09:49:26;;;;;;;1999.90;999.90;;;15.90;99.90;;;;;;5045671;28;20486;-71
2022/06/01 09:51:56;;;;;;;1999.90;999.90;;;16.00;99.90;;;;;;5051460;28;20469;-71
2022/06/01 09:54:29;;;;;;;1999.90;999.90;;;16.30;99.90;;;;;;5048392;28;20515;-71
2022/06/01 09:56:55;;;;;;;1999.90;999.90;;;16.70;99.90;;;;;;5042843;28;20512;-71
2022/06/01 10:07:47;;;;;;;1999.90;999.90;;;17.10;99.90;;;;;;5041653;28;20457;-72
2022/06/01 10:10:23;;;;;;;1999.90;999.90;;;17.20;99.90;;;;;;5045927;28;21016;-72
2022/06/01 10:12:54;;;;;;;1999.90;999.90;;;17.30;99.90;;;;;;5045836;28;20531;-72
2022/06/01 10:15:28;;;;;;;1999.90;999.90;;;17.10;99.90;;;;;;5047071;28;20516;-72
2022/06/01 10:18:00;;;;;;;1999.90;999.90;;;17.20;99.90;;;;;;5047735;28;20519;-71
2022/06/01 10:20:31;;;;;;;1999.90;999.90;;;17.20;99.90;;;;;;5042832;28;20482;-71
2022/06/01 10:23:03;;;;;;;1999.90;999.90;;;17.40;99.90;;;;;;5044907;28;20466;-71
2022/06/01 10:25:37;;;;;;;1999.90;999.90;;;17.40;99.90;;;;;;5046310;28;20581;-70
2022/06/01 10:28:07;;;;;;;1999.90;999.90;;;17.80;99.90;;;;;;5043661;28;20546;-71
2022/06/01 10:30:37;;;;;;;1999.90;999.90;;;18.00;99.90;;;;;;5042885;28;20466;-72
2022/06/01 10:33:09;;;;;;;1999.90;999.90;;;18.20;99.90;;;;;;5031936;28;20505;-68
2022/06/01 10:35:40;;;;;;;1999.90;999.90;;;18.40;99.90;;;;;;5043109;28;21005;-72
2022/06/01 10:38:15;;;;;;;1999.90;999.90;;;18.80;99.90;;;;;;5044902;28;20450;-70
2022/06/01 10:40:45;;;;;;;1999.90;999.90;;;19.20;99.90;;;;;;5048188;28;20521;-72
2022/06/01 10:43:22;;;;;;;1999.90;999.90;;;19.70;99.90;;;;;;5046581;28;20463;-71
2022/06/01 10:45:53;;;;;;;1999.90;999.90;;;19.60;99.60;;;;;;5044496;28;20527;-71
2022/06/01 10:48:26;;;;;;;1999.90;999.90;;;19.10;99.90;;;;;;5053284;28;20501;-70
2022/06/01 10:51:00;;;;;;;1999.90;999.90;;;18.60;99.90;;;;;;5049475;28;20487;-71
2022/06/01 10:53:36;;;;;;;1999.90;999.90;;;18.20;99.90;;;;;;5047885;28;20509;-72
2022/06/01 10:56:03;;;;;;;1999.90;999.90;;;17.90;99.90;;;;;;5050225;28;20451;-71
2022/06/01 10:58:31;;;;;;;1999.90;999.90;;;17.80;99.90;;;;;;5049944;28;20500;-71
2022/06/01 11:01:08;;;;;;;1999.90;999.90;;;17.50;99.90;;;;;;5047204;28;20496;-73
2022/06/01 11:03:58;;;;;;;1999.90;999.90;;;17.20;99.90;;;;;;5043145;28;20458;-71
2022/06/01 11:06:49;;;;;;;1999.90;999.90;;;17.10;99.90;;;;;;5050434;28;20461;-71
2022/06/01 11:09:25;;;;;;;1999.90;999.90;;;17.00;99.90;;;;;;5049304;28;21060;-70
2022/06/01 11:11:58;;;;;;;1999.90;999.90;;;16.90;99.90;;;;;;5087148;22;20492;-66
2022/06/01 11:14:41;;;;;;;1999.90;999.90;;;16.90;99.90;;;;;;5067317;28;20557;-67
2022/06/01 11:17:18;;;;;;;1999.90;999.90;;;16.80;99.90;;;;;;5068557;28;20457;-67
2022/06/01 11:19:58;;;;;;;1999.90;999.90;;;16.90;99.90;;;;;;5069081;28;20473;-67
2022/06/01 11:22:38;;;;;;;1999.90;999.90;;;17.00;99.90;;;;;;5050251;28;20456;-67
2022/06/01 11:25:16;;;;;;;1999.90;999.90;;;17.30;99.90;;;;;;5046640;28;20461;-67
2022/06/01 11:27:57;;;;;;;1999.90;999.90;;;17.70;99.90;;;;;;5048238;28;20469;-67
2022/06/01 11:30:27;;;;;;;1999.90;999.90;;;18.10;99.90;;;;;;5046598;28;20525;-67
2022/06/01 11:32:58;;;;;;;1999.90;999.90;;;18.50;99.90;;;;;;5048393;28;20485;-67
2022/06/01 11:35:32;;;;;;;1999.90;999.90;;;19.00;99.90;;;;;;5047025;28;20470;-65
2022/06/01 11:38:07;;;;;;;1999.90;999.90;;;19.30;99.70;;;;;;5046785;28;20458;-65
2022/06/01 11:40:41;;;;;;;1999.90;999.90;;;19.60;96.30;;;;;;5046188;28;20481;-65
2022/06/01 11:43:16;;;;;;;1999.90;999.90;;;19.20;97.00;;;;;;5043688;28;20463;-64
2022/06/01 11:45:46;;;;;;;1999.90;999.90;;;18.90;98.10;;;;;;5048974;28;20461;-65
2022/06/01 11:48:15;;;;;;;1999.90;999.90;;;19.10;97.10;;;;;;5043837;28;20455;-65
2022/06/01 11:50:53;;;;;;;1999.90;999.90;;;19.30;96.80;;;;;;5046345;28;20486;-65
2022/06/01 11:53:28;;;;;;;1999.90;999.90;;;19.30;96.80;;;;;;5043200;28;20555;-64
2022/06/01 11:56:10;;;;;;;1999.90;999.90;;;19.30;96.60;;;;;;5045174;28;20464;-67
2022/06/01 11:58:41;;;;;;;1999.90;999.90;;;19.30;96.60;;;;;;5046264;28;20531;-67
2022/06/01 12:01:13;;;;;;;1999.90;999.90;;;19.20;96.50;;;;;;5048547;28;20541;-67
2022/06/01 12:03:56;;;;;;;1999.90;999.90;;;19.20;97.00;;;;;;5048300;28;20817;-67
2022/06/01 12:06:44;;;;;;;1999.90;999.90;;;19.40;95.50;;;;;;5047274;28;20992;-65
2022/06/01 12:09:26;;;;;;;1999.90;999.90;;;19.60;94.20;;;;;;5052003;28;20972;-65
2022/06/01 12:11:53;;;;;;;1999.90;999.90;;;19.60;95.10;;;;;;5045096;28;20490;-67
2022/06/01 12:14:30;;;;;;;1999.90;999.90;;;19.70;95.60;;;;;;5049660;28;20470;-68
2022/06/01 12:17:25;;;;;;;1999.90;999.90;;;19.80;95.10;;;;;;5043540;28;20461;-67
2022/06/01 12:20:13;;;;;;;1999.90;999.90;;;19.90;94.40;;;;;;5041199;28;20958;-67
2022/06/01 12:28:46;;;;;;;1999.90;999.90;;;20.50;93.10;;;;;;5048521;28;20450;-67
2022/06/01 12:31:16;;;;;;;1999.90;999.90;;;20.80;92.20;;;;;;5045601;28;20967;-67
2022/06/01 12:34:08;;;;;;;1999.90;999.90;;;20.80;91.60;;;;;;5045468;28;20504;-67
2022/06/01 12:36:41;;;;;;;1999.90;999.90;;;20.90;91.60;;;;;;5051683;28;20484;-67
2022/06/01 12:39:12;;;;;;;1999.90;999.90;;;20.90;91.40;;;;;;5048213;28;20462;-67
2022/06/01 12:41:41;;;;;;;1999.90;999.90;;;20.70;91.10;;;;;;5047906;28;20486;-67
2022/06/01 12:44:11;;;;;;;1999.90;999.90;;;20.30;91.20;;;;;;5043278;28;20459;-67
2022/06/01 12:46:43;;;;;;;1999.90;999.90;;;20.20;92.20;;;;;;5047846;28;20466;-67
2022/06/01 12:49:24;;;;;;;1999.90;999.90;;;20.30;91.80;;;;;;5048041;28;20508;-67